createdAt,value
2022-12-26T00:01:55.278Z,11.32
2022-12-26T00:04:51.068Z,12.23
2022-12-26T00:07:13.680Z,13.27
2022-12-26T00:09:42.463Z,11.98
2022-12-26T00:12:11.186Z,15.15
2022-12-26T00:14:41.484Z,13.20
2022-12-26T00:17:10.246Z,12.57
2022-12-26T00:19:39.330Z,11.77
2022-12-26T00:22:08.797Z,9.90
2022-12-26T00:24:37.611Z,10.82
2022-12-26T00:27:06.461Z,9.68
2022-12-26T00:29:35.309Z,10.23
2022-12-26T00:32:06.049Z,10.13
2022-12-26T00:34:34.827Z,11.07
2022-12-26T00:37:03.557Z,9.73
2022-12-26T00:39:32.486Z,11.55
2022-12-26T00:42:01.352Z,10.55
2022-12-26T00:44:30.167Z,9.55
2022-12-26T00:46:58.964Z,13.55
2022-12-26T00:49:29.260Z,11.75
2022-12-26T00:52:17.995Z,10.65
2022-12-26T00:54:46.960Z,10.65
2022-12-26T00:57:15.669Z,13.60
2022-12-26T00:59:44.509Z,10.35
2022-12-26T01:02:27.206Z,9.75
2022-12-26T01:04:57.485Z,11.18
2022-12-26T01:07:26.341Z,11.05
2022-12-26T01:09:55.128Z,9.70
2022-12-26T01:12:23.948Z,11.27
2022-12-26T01:14:52.910Z,8.65
2022-12-26T01:17:21.793Z,12.25
2022-12-26T01:19:50.492Z,10.10
2022-12-26T01:22:21.358Z,12.00
2022-12-26T01:24:50.244Z,11.02
2022-12-26T01:27:19.104Z,13.43
2022-12-26T01:29:47.961Z,11.48
2022-12-26T01:32:16.924Z,12.05
2022-12-26T01:34:45.715Z,10.75
2022-12-26T01:37:15.881Z,9.90
2022-12-26T01:39:46.058Z,12.18
2022-12-26T01:42:17.199Z,9.80
2022-12-26T01:45:08.603Z,11.07
2022-12-26T01:47:48.363Z,10.50
2022-12-26T01:50:34.677Z,11.70
2022-12-26T01:53:11.847Z,12.13
2022-12-26T01:55:44.203Z,11.18
2022-12-26T01:58:22.254Z,13.63
2022-12-26T02:00:51.519Z,13.68
2022-12-26T02:03:52.440Z,10.60
2022-12-26T02:06:22.073Z,10.50
2022-12-26T02:08:50.978Z,11.68
2022-12-26T02:11:26.922Z,13.65
2022-12-26T02:13:56.428Z,13.43
2022-12-26T02:16:25.844Z,11.30
2022-12-26T02:18:54.767Z,13.88
2022-12-26T02:22:13.245Z,12.45
2022-12-26T02:25:18.384Z,12.95
2022-12-26T02:28:41.109Z,12.05
2022-12-26T02:31:17.007Z,14.77
2022-12-26T02:34:07.454Z,12.30
2022-12-26T02:37:15.827Z,13.57
2022-12-26T02:40:05.581Z,12.02
2022-12-26T02:42:49.730Z,12.35
2022-12-26T02:45:50.837Z,12.25
2022-12-26T02:48:34.634Z,12.93
2022-12-26T02:51:35.313Z,12.95
2022-12-26T02:54:33.984Z,13.00
2022-12-26T02:57:27.694Z,10.48
2022-12-26T03:00:21.011Z,15.18
2022-12-26T03:03:13.970Z,12.93
2022-12-26T03:06:07.324Z,12.52
2022-12-26T03:09:02.481Z,14.48
2022-12-26T03:11:55.041Z,13.85
2022-12-26T03:14:31.766Z,15.35
2022-12-26T03:17:20.879Z,15.93
2022-12-26T03:20:02.228Z,14.85
2022-12-26T03:22:41.162Z,16.63
2022-12-26T03:25:31.311Z,15.40
2022-12-26T03:28:00.260Z,16.15
2022-12-26T03:30:46.569Z,19.45
2022-12-26T03:33:29.457Z,18.50
2022-12-26T03:35:59.038Z,17.83
2022-12-26T03:38:55.384Z,16.42
2022-12-26T03:41:55.372Z,17.73
2022-12-26T03:44:55.615Z,14.00
2022-12-26T03:47:52.432Z,16.15
2022-12-26T03:50:56.331Z,14.32
2022-12-26T03:53:50.714Z,17.52
2022-12-26T03:56:51.586Z,17.30
2022-12-26T03:59:47.161Z,16.80
2022-12-26T04:02:36.237Z,14.45
2022-12-26T04:05:27.751Z,14.00
2022-12-26T04:08:20.706Z,14.80
2022-12-26T04:11:12.667Z,15.63
2022-12-26T04:14:27.670Z,16.30
2022-12-26T04:17:23.607Z,16.02
2022-12-26T04:20:16.715Z,17.75
2022-12-26T04:23:08.753Z,16.83
2022-12-26T04:26:05.972Z,16.65
2022-12-26T04:28:53.567Z,19.45
2022-12-26T04:31:47.883Z,21.08
2022-12-26T04:34:42.319Z,16.75
2022-12-26T04:37:39.727Z,16.25
2022-12-26T04:40:33.808Z,18.27
2022-12-26T04:43:48.181Z,15.15
2022-12-26T04:46:13.434Z,18.80
2022-12-26T04:49:04.805Z,18.40
2022-12-26T04:51:33.738Z,16.02
2022-12-26T04:54:02.553Z,17.02
2022-12-26T04:56:31.356Z,14.10
2022-12-26T04:59:00.832Z,14.45
2022-12-26T05:01:49.186Z,15.40
2022-12-26T05:04:37.252Z,13.48
2022-12-26T05:07:33.943Z,13.35
2022-12-26T05:10:03.140Z,13.90
2022-12-26T05:12:32.197Z,13.82
2022-12-26T05:15:01.011Z,13.75
2022-12-26T05:17:48.561Z,17.13
2022-12-26T05:20:46.516Z,13.52
2022-12-26T05:23:37.964Z,15.88
2022-12-26T05:26:25.525Z,13.60
2022-12-26T05:29:00.719Z,12.27
2022-12-26T05:31:35.061Z,14.85
2022-12-26T05:34:06.015Z,17.05
2022-12-26T05:36:40.637Z,13.52
2022-12-26T05:39:10.908Z,13.00
2022-12-26T05:41:40.803Z,12.70
2022-12-26T05:44:10.456Z,13.70
2022-12-26T05:46:39.944Z,13.88
2022-12-26T05:49:11.462Z,14.95
2022-12-26T05:51:40.501Z,14.75
2022-12-26T05:54:09.232Z,13.48
2022-12-26T05:56:38.032Z,16.00
2022-12-26T05:59:06.802Z,12.98
2022-12-26T06:01:35.660Z,14.95
2022-12-26T06:04:04.918Z,14.00
2022-12-26T06:06:35.132Z,12.93
2022-12-26T06:09:03.984Z,15.80
2022-12-26T06:11:32.739Z,13.65
2022-12-26T06:14:02.068Z,14.75
2022-12-26T06:16:31.434Z,13.85
2022-12-26T06:19:00.313Z,14.52
2022-12-26T06:21:29.257Z,13.75
2022-12-26T06:23:59.495Z,15.02
2022-12-26T06:26:29.643Z,12.55
2022-12-26T06:28:58.501Z,12.40
2022-12-26T06:31:27.560Z,13.43
2022-12-26T06:34:01.404Z,12.80
2022-12-26T06:36:31.310Z,13.18
2022-12-26T06:39:01.950Z,14.18
2022-12-26T06:41:31.061Z,12.73
2022-12-26T06:44:00.174Z,13.57
2022-12-26T06:46:29.791Z,16.48
2022-12-26T06:48:58.811Z,14.10
2022-12-26T06:51:29.951Z,14.98
2022-12-26T06:54:02.767Z,14.93
2022-12-26T06:56:33.411Z,15.55
2022-12-26T06:59:06.104Z,16.02
2022-12-26T07:01:36.933Z,14.60
2022-12-26T07:04:06.547Z,16.48
2022-12-26T07:06:37.783Z,13.05
2022-12-26T07:09:13.196Z,13.57
2022-12-26T07:11:46.503Z,13.07
2022-12-26T07:14:16.316Z,12.90
2022-12-26T07:16:46.451Z,16.17
2022-12-26T07:19:16.586Z,15.02
2022-12-26T07:21:45.760Z,14.65
2022-12-26T07:24:19.294Z,13.73
2022-12-26T07:26:49.356Z,13.57
2022-12-26T07:29:18.567Z,13.55
2022-12-26T07:31:47.452Z,14.18
2022-12-26T07:34:16.678Z,13.13
2022-12-26T07:36:45.463Z,13.30
2022-12-26T07:39:16.879Z,14.10
2022-12-26T07:42:01.096Z,16.83
2022-12-26T07:44:33.310Z,13.52
2022-12-26T07:47:02.580Z,16.65
2022-12-26T07:49:31.515Z,15.48
2022-12-26T07:52:03.383Z,23.98
2022-12-26T07:54:33.638Z,16.92
2022-12-26T07:57:38.126Z,15.00
2022-12-26T07:59:53.583Z,15.18
2022-12-26T08:02:22.949Z,16.65
2022-12-26T08:04:51.768Z,16.83
2022-12-26T08:07:22.549Z,15.60
2022-12-26T08:09:52.950Z,14.80
2022-12-26T08:12:24.563Z,15.30
2022-12-26T08:14:53.488Z,15.10
2022-12-26T08:17:22.265Z,17.20
2022-12-26T08:19:51.223Z,21.33
2022-12-26T08:22:20.023Z,15.48
2022-12-26T08:24:48.816Z,16.38
2022-12-26T08:27:19.047Z,16.15
2022-12-26T08:29:49.591Z,15.80
2022-12-26T08:32:18.306Z,16.73
2022-12-26T08:34:47.351Z,16.10
2022-12-26T08:37:16.192Z,20.55
2022-12-26T08:39:44.970Z,21.13
2022-12-26T08:42:13.789Z,21.10
2022-12-26T08:44:43.928Z,21.10
2022-12-26T08:47:12.807Z,22.65
2022-12-26T08:49:41.699Z,20.35
2022-12-26T08:52:10.521Z,21.83
2022-12-26T08:54:40.141Z,21.08
2022-12-26T08:57:09.636Z,22.95
2022-12-26T08:59:38.360Z,25.75
2022-12-26T09:02:10.515Z,24.70
2022-12-26T09:04:39.747Z,21.40
2022-12-26T09:07:09.555Z,23.00
2022-12-26T09:09:38.720Z,21.77
2022-12-26T09:12:07.907Z,23.02
2022-12-26T09:14:36.958Z,23.98
2022-12-26T09:17:10.292Z,24.55
2022-12-26T09:19:39.052Z,23.88
2022-12-26T09:22:28.300Z,26.98
2022-12-26T09:25:01.948Z,26.63
2022-12-26T09:27:30.870Z,25.70
2022-12-26T09:29:59.952Z,25.20
2022-12-26T09:32:34.615Z,25.92
2022-12-26T09:35:04.070Z,26.83
2022-12-26T09:37:32.865Z,27.15
2022-12-26T09:40:02.241Z,26.67
2022-12-26T09:42:40.818Z,25.35
2022-12-26T09:45:16.997Z,28.35
2022-12-26T09:47:59.067Z,30.17
2022-12-26T09:50:36.054Z,28.55
2022-12-26T09:53:13.668Z,25.35
2022-12-26T09:55:50.371Z,29.42
2022-12-26T09:58:29.489Z,27.40
2022-12-26T10:01:09.364Z,30.73
2022-12-26T10:03:43.056Z,29.13
2022-12-26T10:06:17.650Z,29.65
2022-12-26T10:09:24.596Z,31.23
2022-12-26T10:12:19.249Z,28.13
2022-12-26T10:15:00.753Z,30.00
2022-12-26T10:17:41.803Z,30.65
2022-12-26T10:20:26.923Z,27.88
2022-12-26T10:23:26.118Z,27.67
2022-12-26T10:26:00.105Z,30.20
2022-12-26T10:28:39.256Z,29.92
2022-12-26T10:31:18.467Z,32.78
2022-12-26T10:33:55.399Z,31.83
2022-12-26T10:36:34.407Z,29.58
2022-12-26T10:39:07.838Z,29.23
2022-12-26T10:41:51.454Z,32.70
2022-12-26T10:44:27.180Z,29.00
2022-12-26T10:47:22.917Z,30.27
2022-12-26T10:49:51.730Z,31.08
2022-12-26T10:52:29.789Z,32.03
2022-12-26T10:55:27.926Z,33.50
2022-12-26T10:57:53.470Z,30.27
2022-12-26T11:00:27.625Z,30.15
2022-12-26T11:03:09.564Z,29.80
2022-12-26T11:06:07.020Z,30.80
2022-12-26T11:08:43.639Z,29.38
2022-12-26T11:11:22.484Z,27.58
2022-12-26T11:14:01.710Z,31.33
2022-12-26T11:16:35.816Z,30.48
2022-12-26T11:19:05.265Z,29.50
2022-12-26T11:21:35.219Z,29.02
2022-12-26T11:24:20.761Z,29.60
2022-12-26T11:26:50.035Z,95.47
2022-12-26T11:29:21.818Z,35.92
2022-12-26T11:31:59.208Z,31.65
2022-12-26T11:34:35.518Z,31.05
2022-12-26T11:37:06.910Z,30.42
2022-12-26T11:39:39.198Z,27.95
2022-12-26T11:42:12.074Z,29.23
2022-12-26T11:44:45.681Z,30.08
2022-12-26T11:47:19.227Z,25.85
2022-12-26T11:49:58.785Z,32.47
2022-12-26T11:52:39.988Z,31.65
2022-12-26T11:55:32.780Z,31.15
2022-12-26T11:58:16.348Z,29.88
2022-12-26T12:01:09.539Z,28.05
2022-12-26T12:03:48.965Z,29.58
2022-12-26T12:06:54.719Z,32.28
2022-12-26T12:09:35.759Z,31.98
2022-12-26T12:12:18.525Z,31.20
2022-12-26T12:15:04.923Z,29.85
2022-12-26T12:17:49.954Z,29.42
2022-12-26T12:20:33.115Z,31.80
2022-12-26T12:23:25.693Z,47.00
2022-12-26T12:26:10.940Z,41.78
2022-12-26T12:29:13.179Z,34.17
2022-12-26T12:32:08.715Z,33.38
2022-12-26T12:35:01.536Z,29.25
2022-12-26T12:37:42.908Z,29.15
2022-12-26T12:40:32.763Z,29.20
2022-12-26T12:43:15.194Z,28.10
2022-12-26T12:46:00.338Z,29.42
2022-12-26T12:48:56.933Z,30.92
2022-12-26T12:51:37.434Z,28.35
2022-12-26T12:54:53.521Z,31.42
2022-12-26T12:57:32.285Z,30.35
2022-12-26T13:00:17.428Z,30.70
2022-12-26T13:02:57.234Z,53.92
2022-12-26T13:05:40.864Z,34.20
2022-12-26T13:08:18.206Z,34.08
2022-12-26T13:10:54.591Z,31.27
2022-12-26T13:13:29.782Z,31.25
2022-12-26T13:16:08.599Z,30.63
2022-12-26T13:18:50.441Z,34.00
2022-12-26T13:21:22.662Z,30.52
2022-12-26T13:24:15.289Z,32.25
2022-12-26T13:26:49.753Z,30.48
2022-12-26T13:29:28.895Z,31.98
2022-12-26T13:32:01.108Z,31.80
2022-12-26T13:34:31.960Z,30.05
2022-12-26T13:37:02.130Z,30.60
2022-12-26T13:39:41.854Z,30.17
2022-12-26T13:42:56.271Z,30.55
2022-12-26T13:45:58.711Z,30.05
2022-12-26T13:49:27.258Z,30.85
2022-12-26T13:52:01.584Z,30.80
2022-12-26T13:54:31.926Z,29.00
2022-12-26T13:57:36.824Z,28.65
2022-12-26T14:00:18.474Z,29.38
2022-12-26T14:03:52.715Z,29.98
2022-12-26T14:06:56.387Z,29.35
2022-12-26T14:09:43.132Z,28.73
2022-12-26T14:12:55.939Z,29.55
2022-12-26T14:15:39.249Z,29.00
2022-12-26T14:18:28.144Z,30.55
2022-12-26T14:21:23.207Z,32.40
2022-12-26T14:24:01.515Z,30.23
2022-12-26T14:26:48.188Z,32.85
2022-12-26T14:29:30.593Z,31.73
2022-12-26T14:32:26.351Z,30.40
2022-12-26T14:35:08.370Z,29.80
2022-12-26T14:37:49.880Z,29.67
2022-12-26T14:40:30.738Z,30.73
2022-12-26T14:43:28.963Z,30.10
2022-12-26T14:45:58.688Z,42.80
2022-12-26T14:48:58.619Z,28.08
2022-12-26T14:51:41.327Z,29.50
2022-12-26T14:54:52.012Z,34.22
2022-12-26T14:57:49.908Z,29.67
2022-12-26T15:00:38.833Z,27.27
2022-12-26T15:03:45.999Z,32.58
2022-12-26T15:07:06.527Z,28.73
2022-12-26T15:10:19.061Z,29.05
2022-12-26T15:13:40.964Z,32.17
2022-12-26T15:16:39.072Z,30.85
2022-12-26T15:19:50.218Z,29.27
2022-12-26T15:23:09.125Z,29.48
2022-12-26T15:26:15.018Z,29.10
2022-12-26T15:29:48.910Z,30.35
2022-12-26T15:32:36.739Z,32.55
2022-12-26T15:35:22.611Z,31.23
2022-12-26T15:38:20.331Z,33.90
2022-12-26T15:41:01.445Z,31.58
2022-12-26T15:44:07.611Z,31.65
2022-12-26T15:46:44.408Z,31.40
2022-12-26T15:49:41.967Z,29.98
2022-12-26T15:52:26.612Z,31.33
2022-12-26T15:55:40.410Z,33.65
2022-12-26T15:58:26.758Z,30.48
2022-12-26T16:01:00.310Z,31.35
2022-12-26T16:03:42.088Z,31.52
2022-12-26T16:06:34.323Z,31.20
2022-12-26T16:09:36.033Z,30.52
2022-12-26T16:12:21.078Z,32.20
2022-12-26T16:15:02.470Z,34.47
2022-12-26T16:17:36.536Z,32.88
2022-12-26T16:21:14.406Z,32.10
2022-12-26T16:23:57.632Z,32.55
2022-12-26T16:26:31.355Z,33.78
2022-12-26T16:29:02.437Z,39.25
2022-12-26T16:31:32.711Z,33.08
2022-12-26T16:34:03.365Z,35.47
2022-12-26T16:36:39.279Z,36.97
2022-12-26T16:39:13.228Z,35.58
2022-12-26T16:42:04.551Z,38.22
2022-12-26T16:44:38.720Z,33.90
2022-12-26T16:47:14.299Z,34.90
2022-12-26T16:49:47.254Z,32.90
2022-12-26T16:52:38.182Z,32.35
2022-12-26T16:55:46.709Z,37.42
2022-12-26T16:58:24.964Z,40.00
2022-12-26T17:01:08.530Z,33.88
2022-12-26T17:03:50.821Z,33.33
2022-12-26T17:06:27.410Z,31.58
2022-12-26T17:09:00.204Z,31.27
2022-12-26T17:11:35.146Z,26.55
2022-12-26T17:14:08.920Z,25.15
2022-12-26T17:16:38.133Z,24.08
2022-12-26T17:19:20.530Z,24.83
2022-12-26T17:22:27.979Z,23.38
2022-12-26T17:25:26.769Z,35.83
2022-12-26T17:28:29.896Z,25.02
2022-12-26T17:31:13.733Z,20.05
2022-12-26T17:33:47.886Z,19.65
2022-12-26T17:37:16.617Z,19.55
2022-12-26T17:39:21.219Z,17.58
2022-12-26T17:41:54.982Z,18.42
2022-12-26T17:44:40.528Z,16.40
2022-12-26T17:47:20.827Z,16.05
2022-12-26T17:49:51.335Z,16.27
2022-12-26T17:52:24.078Z,16.63
2022-12-26T17:54:54.281Z,15.85
2022-12-26T17:57:26.810Z,17.02
2022-12-26T17:59:58.529Z,16.92
2022-12-26T18:02:27.626Z,17.27
2022-12-26T18:04:56.993Z,17.10
2022-12-26T18:07:31.575Z,17.42
2022-12-26T18:10:01.205Z,18.83
2022-12-26T18:12:30.507Z,17.85
2022-12-26T18:15:02.464Z,18.60
2022-12-26T18:17:34.875Z,19.25
2022-12-26T18:20:04.891Z,17.58
2022-12-26T18:22:33.806Z,18.15
2022-12-26T18:25:03.208Z,17.00
2022-12-26T18:27:34.977Z,17.42
2022-12-26T18:30:06.561Z,16.80
2022-12-26T18:32:36.158Z,16.73
2022-12-26T18:35:05.678Z,15.52
2022-12-26T18:37:35.078Z,15.93
2022-12-26T18:40:04.205Z,18.35
2022-12-26T18:42:33.297Z,18.42
2022-12-26T18:45:02.109Z,19.70
2022-12-26T18:47:32.435Z,19.70
2022-12-26T18:50:01.185Z,17.38
2022-12-26T18:52:29.992Z,18.10
2022-12-26T18:54:58.776Z,16.10
2022-12-26T18:57:27.549Z,14.93
2022-12-26T18:59:56.437Z,17.65
2022-12-26T19:02:25.489Z,18.80
2022-12-26T19:04:55.917Z,22.02
2022-12-26T19:07:25.117Z,22.38
2022-12-26T19:09:55.828Z,21.33
2022-12-26T19:12:25.974Z,19.85
2022-12-26T19:14:55.543Z,17.63
2022-12-26T19:17:24.914Z,16.92
2022-12-26T19:19:55.352Z,15.27
2022-12-26T19:22:24.481Z,15.63
2022-12-26T19:24:53.644Z,15.50
2022-12-26T19:27:23.051Z,14.63
2022-12-26T19:29:52.177Z,14.50
2022-12-26T19:32:21.130Z,15.15
2022-12-26T19:34:50.060Z,17.10
2022-12-26T19:37:20.602Z,24.48
2022-12-26T19:39:49.474Z,20.30
2022-12-26T19:42:18.823Z,19.85
2022-12-26T19:44:48.098Z,19.92
2022-12-26T19:47:17.217Z,18.85
2022-12-26T19:49:46.375Z,20.23
2022-12-26T19:52:15.442Z,20.58
2022-12-26T19:54:45.854Z,25.13
2022-12-26T19:57:14.817Z,22.73
2022-12-26T19:59:43.755Z,22.67
2022-12-26T20:02:14.844Z,21.20
2022-12-26T20:04:44.204Z,22.15
2022-12-26T20:07:13.221Z,23.17
2022-12-26T20:09:42.275Z,25.63
2022-12-26T20:12:12.874Z,27.75
2022-12-26T20:14:41.970Z,29.10
2022-12-26T20:17:12.486Z,30.80
2022-12-26T20:19:43.445Z,34.83
2022-12-26T20:22:13.025Z,26.40
2022-12-26T20:24:42.115Z,30.10
2022-12-26T20:27:13.755Z,26.38
2022-12-26T20:29:42.656Z,28.80
2022-12-26T20:32:12.049Z,29.20
2022-12-26T20:34:41.069Z,31.02
2022-12-26T20:37:10.261Z,29.77
2022-12-26T20:39:39.341Z,32.78
2022-12-26T20:42:08.345Z,30.50
2022-12-26T20:44:41.538Z,30.85
2022-12-26T20:47:11.020Z,31.60
2022-12-26T20:49:41.886Z,28.73
2022-12-26T20:52:11.005Z,30.10
2022-12-26T20:54:41.875Z,27.30
2022-12-26T20:57:10.819Z,28.23
2022-12-26T20:59:41.328Z,22.58
2022-12-26T21:02:14.135Z,12.05
2022-12-26T21:04:43.101Z,8.68
2022-12-26T21:07:12.188Z,6.80
2022-12-26T21:09:46.522Z,7.78
2022-12-26T21:12:15.804Z,6.70
2022-12-26T21:14:46.091Z,4.97
2022-12-26T21:17:18.803Z,4.43
2022-12-26T21:19:47.553Z,3.95
2022-12-26T21:22:16.496Z,3.67
2022-12-26T21:24:46.535Z,3.58
2022-12-26T21:27:15.545Z,3.50
2022-12-26T21:29:46.026Z,2.80
2022-12-26T21:32:15.162Z,2.75
2022-12-26T21:34:44.222Z,2.10
2022-12-26T21:37:30.488Z,2.13
2022-12-26T21:39:59.376Z,2.80
2022-12-26T21:42:28.184Z,2.72
2022-12-26T21:44:58.489Z,3.28
2022-12-26T21:47:27.314Z,3.42
2022-12-26T21:49:56.309Z,2.10
2022-12-26T21:52:25.164Z,2.00
2022-12-26T21:55:11.870Z,1.90
2022-12-26T21:57:40.833Z,1.98
2022-12-26T22:00:13.034Z,1.70
2022-12-26T22:02:59.530Z,1.20
2022-12-26T22:05:31.606Z,3.13
2022-12-26T22:08:02.543Z,1.77
2022-12-26T22:10:51.382Z,1.63
2022-12-26T22:13:23.339Z,1.70
2022-12-26T22:16:05.514Z,1.73
2022-12-26T22:18:38.379Z,1.60
2022-12-26T22:21:11.782Z,1.42
2022-12-26T22:23:42.292Z,1.50
2022-12-26T22:26:14.269Z,1.77
2022-12-26T22:28:44.088Z,1.30
2022-12-26T22:31:21.512Z,2.80
2022-12-26T22:33:58.605Z,2.08
2022-12-26T22:36:30.444Z,1.77
2022-12-26T22:39:02.358Z,1.50
2022-12-26T22:41:38.185Z,1.90
2022-12-26T22:44:08.322Z,2.10
2022-12-26T22:46:38.803Z,1.45
2022-12-26T22:49:10.448Z,3.45
2022-12-26T22:51:39.527Z,4.88
2022-12-26T22:54:08.403Z,2.30
2022-12-26T22:56:39.873Z,3.75
2022-12-26T22:59:08.860Z,5.22
2022-12-26T23:01:39.383Z,2.20
2022-12-26T23:04:09.222Z,2.33
2022-12-26T23:06:41.477Z,1.40
2022-12-26T23:09:17.427Z,1.15
2022-12-26T23:12:07.726Z,0.95
2022-12-26T23:14:36.897Z,1.80
2022-12-26T23:17:34.028Z,1.63
2022-12-26T23:20:21.166Z,1.63
2022-12-26T23:22:50.651Z,1.20
2022-12-26T23:25:19.788Z,1.55
2022-12-26T23:28:06.241Z,1.30
2022-12-26T23:30:35.254Z,1.40
2022-12-26T23:33:06.133Z,1.30
2022-12-26T23:35:34.976Z,1.65
2022-12-26T23:38:03.910Z,1.20
2022-12-26T23:40:33.088Z,0.95
2022-12-26T23:43:01.919Z,1.65
2022-12-26T23:45:30.771Z,2.78
2022-12-26T23:47:59.545Z,1.05
2022-12-26T23:50:29.789Z,1.20
2022-12-26T23:52:58.556Z,1.50
2022-12-26T23:55:27.351Z,1.55
2022-12-26T23:57:57.883Z,1.42
